Time;durP1;ratioP1;P1;durP2;ratioP2;P2;SDS_P1;SDS_P2;PMS_P1;PMS_P2;Temp;Humidity;BMP_temperature;BMP_pressure;BME280_temperature;BME280_humidity;BME280_pressure;Samples;Min_cycle;Max_cycle;Signal;HPM_P1;HPM_P2
2024/02/29 00:00:38;;;;;;;13.30;7.95;;;;;;;;;;5047959;28;20025;-56
2024/02/29 00:03:04;;;;;;;12.63;7.53;;;;;;;;;;5046011;28;20024;-54
2024/02/29 00:05:30;;;;;;;13.40;8.20;;;;;;;;;;5047595;28;20041;-57
2024/02/29 00:07:56;;;;;;;13.43;8.20;;;;;;;;;;5047682;28;20044;-56
2024/02/29 00:10:22;;;;;;;13.38;8.35;;;;;;;;;;5046897;28;20036;-54
2024/02/29 00:12:48;;;;;;;13.35;8.32;;;;;;;;;;5048964;28;20036;-53
2024/02/29 00:15:14;;;;;;;13.50;8.40;;;;;;;;;;5066850;22;20099;-48
2024/02/29 00:17:40;;;;;;;13.32;8.18;;;;;;;;;;5031923;28;20064;-53
2024/02/29 00:20:09;;;;;;;13.50;8.25;;;;;;;;;;5031200;28;20075;-52
2024/02/29 00:22:35;;;;;;;13.43;8.25;;;;;;;;;;5029687;28;20048;-52
2024/02/29 00:25:02;;;;;;;13.27;8.10;;;;;;;;;;5031049;28;20096;-53
2024/02/29 00:27:30;;;;;;;13.30;8.10;;;;;;;;;;5031445;28;20033;-52
2024/02/29 00:29:56;;;;;;;13.38;8.25;;;;;;;;;;5046415;28;20022;-48
2024/02/29 00:32:22;;;;;;;13.40;8.20;;;;;;;;;;5030601;28;20033;-52
2024/02/29 00:34:49;;;;;;;13.38;8.20;;;;;;;;;;5030933;28;20026;-49
2024/02/29 00:37:15;;;;;;;13.45;8.45;;;;;;;;;;5031969;28;20022;-53
2024/02/29 00:39:41;;;;;;;13.85;9.27;;;;;;;;;;5031608;28;20026;-47
2024/02/29 00:42:07;;;;;;;13.40;8.10;;;;;;;;;;5031534;28;20026;-49
2024/02/29 00:44:33;;;;;;;13.35;8.13;;;;;;;;;;5031717;28;20096;-49
2024/02/29 00:46:59;;;;;;;13.38;8.10;;;;;;;;;;5031544;28;20116;-49
2024/02/29 00:49:25;;;;;;;13.43;8.30;;;;;;;;;;5031656;28;20515;-53
2024/02/29 00:51:51;;;;;;;13.30;8.10;;;;;;;;;;5031140;28;20057;-50
2024/02/29 00:54:17;;;;;;;16.73;8.70;;;;;;;;;;5031138;28;20112;-48
2024/02/29 00:56:43;;;;;;;18.42;8.88;;;;;;;;;;5031162;28;20021;-51
2024/02/29 00:59:09;;;;;;;13.30;8.00;;;;;;;;;;5031574;28;20033;-51
2024/02/29 01:01:35;;;;;;;13.30;8.05;;;;;;;;;;5031283;28;20197;-49
2024/02/29 01:04:01;;;;;;;13.50;8.32;;;;;;;;;;5030888;28;20029;-49
2024/02/29 01:06:27;;;;;;;13.50;8.27;;;;;;;;;;5031402;28;20021;-48
2024/02/29 01:08:53;;;;;;;13.25;8.07;;;;;;;;;;5029946;28;20040;-47
2024/02/29 01:11:19;;;;;;;13.23;8.10;;;;;;;;;;5030635;28;20025;-51
2024/02/29 01:13:45;;;;;;;13.48;8.35;;;;;;;;;;5028909;28;20041;-52
2024/02/29 01:16:11;;;;;;;13.18;8.00;;;;;;;;;;5030141;28;20468;-50
2024/02/29 01:18:37;;;;;;;13.30;8.10;;;;;;;;;;5028856;28;20120;-51
2024/02/29 01:21:06;;;;;;;13.40;8.00;;;;;;;;;;5029993;28;20103;-49
2024/02/29 01:23:32;;;;;;;;;;;;;;;;;;5029953;28;20509;-52
2024/02/29 01:25:58;;;;;;;13.55;8.48;;;;;;;;;;5046021;28;19959;-50
2024/02/29 01:28:24;;;;;;;13.27;7.95;;;;;;;;;;5031008;28;20629;-50
2024/02/29 01:30:50;;;;;;;13.15;7.90;;;;;;;;;;5031049;28;20033;-48
2024/02/29 01:33:16;;;;;;;18.35;16.25;;;;;;;;;;5030288;28;20056;-52
2024/02/29 01:35:42;;;;;;;13.43;8.30;;;;;;;;;;5030913;28;20041;-50
2024/02/29 01:38:08;;;;;;;13.13;7.90;;;;;;;;;;5030833;28;20018;-49
2024/02/29 01:40:34;;;;;;;13.18;7.95;;;;;;;;;;5030720;28;20025;-48
2024/02/29 01:43:01;;;;;;;13.07;7.88;;;;;;;;;;5030438;28;20052;-49
2024/02/29 01:45:27;;;;;;;13.50;8.30;;;;;;;;;;5030312;28;20018;-53
2024/02/29 01:47:53;;;;;;;13.27;8.10;;;;;;;;;;5030725;28;20029;-52
2024/02/29 01:50:20;;;;;;;13.43;8.30;;;;;;;;;;5030602;28;20486;-52
2024/02/29 01:52:46;;;;;;;13.40;8.20;;;;;;;;;;5029983;28;20030;-50
2024/02/29 01:55:12;;;;;;;13.18;8.10;;;;;;;;;;5030337;28;20108;-48
2024/02/29 01:57:39;;;;;;;13.50;8.40;;;;;;;;;;5030885;28;20415;-48
2024/02/29 02:00:07;;;;;;;13.38;8.30;;;;;;;;;;5031057;28;20028;-49
2024/02/29 02:02:33;;;;;;;13.25;8.05;;;;;;;;;;5029700;28;20021;-53
2024/02/29 02:04:59;;;;;;;13.50;8.50;;;;;;;;;;5028843;28;20026;-51
2024/02/29 02:07:26;;;;;;;14.38;10.48;;;;;;;;;;5030226;28;20036;-47
2024/02/29 02:09:52;;;;;;;13.43;8.40;;;;;;;;;;5029136;28;20092;-51
2024/02/29 02:12:18;;;;;;;15.90;9.02;;;;;;;;;;5029533;28;20598;-47
2024/02/29 02:14:44;;;;;;;13.60;8.40;;;;;;;;;;5029954;28;20033;-51
2024/02/29 02:17:10;;;;;;;13.50;8.40;;;;;;;;;;5030050;28;20104;-52
2024/02/29 02:19:37;;;;;;;13.20;8.10;;;;;;;;;;5030127;28;20026;-52
2024/02/29 02:22:04;;;;;;;13.45;8.30;;;;;;;;;;5029290;28;20112;-53
2024/02/29 02:24:34;;;;;;;13.38;8.30;;;;;;;;;;5029763;28;20057;-54
2024/02/29 02:27:00;;;;;;;13.57;8.57;;;;;;;;;;5029936;28;20036;-48
2024/02/29 02:29:26;;;;;;;13.55;8.60;;;;;;;;;;5029649;28;20026;-53
2024/02/29 02:31:53;;;;;;;14.50;9.30;;;;;;;;;;5029285;28;20032;-51
2024/02/29 02:34:20;;;;;;;13.43;8.25;;;;;;;;;;5029102;28;20028;-52
2024/02/29 02:36:46;;;;;;;13.45;8.27;;;;;;;;;;5029739;28;20029;-51
2024/02/29 02:39:12;;;;;;;13.52;8.27;;;;;;;;;;5030162;28;20486;-51
2024/02/29 02:41:38;;;;;;;13.27;8.18;;;;;;;;;;5029704;28;20442;-49
2024/02/29 02:44:04;;;;;;;13.40;8.30;;;;;;;;;;5037595;28;20021;-48
2024/02/29 02:46:30;;;;;;;13.35;8.30;;;;;;;;;;5049066;28;20454;-51
2024/02/29 02:48:56;;;;;;;13.43;8.32;;;;;;;;;;5048927;28;20036;-49
2024/02/29 02:51:26;;;;;;;13.52;8.50;;;;;;;;;;5049776;28;20079;-51
2024/02/29 02:53:52;;;;;;;13.43;8.20;;;;;;;;;;5049326;28;20392;-48
2024/02/29 02:56:18;;;;;;;13.40;8.20;;;;;;;;;;5049637;28;20021;-51
2024/02/29 02:58:44;;;;;;;13.45;8.25;;;;;;;;;;5052049;28;20106;-51
2024/02/29 03:01:10;;;;;;;13.43;8.30;;;;;;;;;;5053257;28;20024;-50
2024/02/29 03:03:36;;;;;;;13.90;8.90;;;;;;;;;;5053096;28;20044;-52
2024/02/29 03:06:02;;;;;;;13.65;8.77;;;;;;;;;;5053877;28;20055;-49
2024/02/29 03:08:28;;;;;;;13.32;8.25;;;;;;;;;;5054700;28;20407;-48
2024/02/29 03:10:54;;;;;;;13.38;8.35;;;;;;;;;;5054602;28;20029;-51
2024/02/29 03:13:20;;;;;;;13.43;8.30;;;;;;;;;;5052434;28;20055;-49
2024/02/29 03:15:46;;;;;;;13.38;8.27;;;;;;;;;;5046849;28;20120;-49
2024/02/29 03:18:12;;;;;;;13.52;8.43;;;;;;;;;;5054572;28;20017;-52
2024/02/29 03:20:38;;;;;;;13.38;8.20;;;;;;;;;;5054187;28;20032;-47
2024/02/29 03:23:06;;;;;;;13.48;8.30;;;;;;;;;;5053771;28;20085;-47
2024/02/29 03:25:32;;;;;;;13.32;8.32;;;;;;;;;;5054636;28;20027;-48
2024/02/29 03:27:58;;;;;;;13.52;8.55;;;;;;;;;;5053243;28;20033;-48
2024/02/29 03:30:24;;;;;;;13.60;8.60;;;;;;;;;;5054183;28;20478;-49
2024/02/29 03:32:50;;;;;;;13.57;8.57;;;;;;;;;;5053563;28;20541;-48
2024/02/29 03:35:16;;;;;;;13.63;8.68;;;;;;;;;;5054189;28;20021;-47
2024/02/29 03:37:42;;;;;;;13.65;8.82;;;;;;;;;;5054140;28;20384;-49
2024/02/29 03:40:08;;;;;;;13.50;8.45;;;;;;;;;;5053913;28;20075;-49
2024/02/29 03:42:34;;;;;;;13.63;8.77;;;;;;;;;;5053254;28;20056;-49
2024/02/29 03:45:00;;;;;;;13.60;8.75;;;;;;;;;;5054110;28;20024;-52
2024/02/29 03:47:26;;;;;;;13.60;8.70;;;;;;;;;;5054078;28;20037;-55
2024/02/29 03:49:52;;;;;;;13.63;8.82;;;;;;;;;;5054433;28;20127;-48
2024/02/29 03:52:18;;;;;;;13.57;8.65;;;;;;;;;;5051848;28;20036;-49
2024/02/29 03:54:45;;;;;;;13.57;8.75;;;;;;;;;;5053554;28;20564;-47
2024/02/29 03:57:11;;;;;;;13.70;8.95;;;;;;;;;;5053701;28;20089;-51
2024/02/29 03:59:37;;;;;;;13.55;8.50;;;;;;;;;;5053923;28;20468;-47
2024/02/29 04:02:03;;;;;;;13.55;8.57;;;;;;;;;;5052939;28;20025;-50
2024/02/29 04:04:29;;;;;;;13.68;8.90;;;;;;;;;;5053646;28;20032;-51
2024/02/29 04:06:56;;;;;;;13.55;8.68;;;;;;;;;;5053533;28;20025;-50
2024/02/29 04:09:22;;;;;;;13.57;8.80;;;;;;;;;;5053453;28;20031;-49
2024/02/29 04:11:49;;;;;;;13.52;8.50;;;;;;;;;;5053713;28;20036;-51
2024/02/29 04:14:16;;;;;;;13.60;8.68;;;;;;;;;;5051936;28;20052;-50
2024/02/29 04:16:41;;;;;;;13.70;9.00;;;;;;;;;;5053182;28;20028;-51
2024/02/29 04:19:07;;;;;;;13.80;8.93;;;;;;;;;;5051840;28;20082;-52
2024/02/29 04:21:34;;;;;;;13.68;8.82;;;;;;;;;;5051238;28;20130;-49
2024/02/29 04:24:00;;;;;;;13.45;8.57;;;;;;;;;;5051388;28;20100;-47
2024/02/29 04:26:26;;;;;;;13.60;8.80;;;;;;;;;;5051622;28;20021;-50
2024/02/29 04:28:53;;;;;;;13.55;8.65;;;;;;;;;;5051717;28;20033;-50
2024/02/29 04:31:19;;;;;;;15.07;9.52;;;;;;;;;;5051465;28;20033;-51
2024/02/29 04:33:45;;;;;;;13.90;8.88;;;;;;;;;;5050994;28;20028;-50
2024/02/29 04:36:11;;;;;;;13.43;8.40;;;;;;;;;;5049764;28;20116;-49
2024/02/29 04:38:37;;;;;;;13.50;8.50;;;;;;;;;;5043557;28;20472;-48
2024/02/29 04:41:03;;;;;;;14.10;9.93;;;;;;;;;;5031081;28;20021;-51
2024/02/29 04:43:29;;;;;;;13.52;8.43;;;;;;;;;;5030793;28;20104;-48
2024/02/29 04:45:55;;;;;;;13.57;8.68;;;;;;;;;;5030782;28;20033;-51
2024/02/29 04:48:21;;;;;;;14.43;10.25;;;;;;;;;;5029698;28;20021;-50
2024/02/29 04:50:47;;;;;;;24.90;22.48;;;;;;;;;;5030643;28;20184;-50
2024/02/29 04:53:16;;;;;;;13.40;8.20;;;;;;;;;;5030172;28;20120;-50
2024/02/29 04:55:42;;;;;;;13.75;8.60;;;;;;;;;;5030717;28;20034;-50
2024/02/29 04:58:08;;;;;;;13.50;8.45;;;;;;;;;;5031050;28;20629;-46
2024/02/29 05:00:34;;;;;;;13.45;8.55;;;;;;;;;;5031521;28;20028;-52
2024/02/29 05:03:00;;;;;;;13.50;8.63;;;;;;;;;;5030436;28;20115;-49
2024/02/29 05:05:27;;;;;;;13.68;9.10;;;;;;;;;;5037035;28;20033;-49
2024/02/29 05:07:54;;;;;;;13.50;8.73;;;;;;;;;;5050596;28;20021;-52
2024/02/29 05:10:21;;;;;;;13.73;8.80;;;;;;;;;;5044180;28;20393;-48
2024/02/29 05:12:50;;;;;;;13.93;9.55;;;;;;;;;;5030629;28;20026;-51
2024/02/29 05:15:19;;;;;;;13.52;8.50;;;;;;;;;;5030925;28;20037;-49
2024/02/29 05:17:45;;;;;;;13.65;8.80;;;;;;;;;;5030903;28;20351;-50
2024/02/29 05:20:11;;;;;;;15.48;9.23;;;;;;;;;;5030335;28;20044;-52
2024/02/29 05:22:37;;;;;;;13.52;8.57;;;;;;;;;;5029905;28;20589;-50
2024/02/29 05:25:03;;;;;;;23.95;17.42;;;;;;;;;;5030466;28;20053;-47
2024/02/29 05:27:29;;;;;;;14.00;9.77;;;;;;;;;;5030614;28;20037;-49
2024/02/29 05:29:57;;;;;;;13.80;9.10;;;;;;;;;;5030332;28;20468;-52
2024/02/29 05:32:23;;;;;;;13.60;8.70;;;;;;;;;;5029716;28;20029;-51
2024/02/29 05:34:49;;;;;;;13.52;8.68;;;;;;;;;;5030521;28;20033;-52
2024/02/29 05:37:15;;;;;;;13.45;8.40;;;;;;;;;;5030546;28;20533;-52
2024/02/29 05:39:42;;;;;;;13.50;8.40;;;;;;;;;;5030658;28;20036;-51
2024/02/29 05:42:09;;;;;;;13.57;8.48;;;;;;;;;;5030240;28;20098;-51
2024/02/29 05:44:35;;;;;;;13.43;8.27;;;;;;;;;;5030142;28;20040;-49
2024/02/29 05:47:02;;;;;;;13.55;8.45;;;;;;;;;;5030254;28;20025;-51
2024/02/29 05:49:28;;;;;;;13.45;8.30;;;;;;;;;;5030467;28;20388;-51
2024/02/29 05:51:55;;;;;;;13.43;8.20;;;;;;;;;;5030327;28;20032;-49
2024/02/29 05:54:21;;;;;;;13.40;8.27;;;;;;;;;;5029696;28;20034;-48
2024/02/29 05:56:47;;;;;;;13.55;8.60;;;;;;;;;;5030225;28;20411;-50
2024/02/29 05:59:13;;;;;;;13.73;9.00;;;;;;;;;;5030303;28;20025;-50
2024/02/29 06:01:39;;;;;;;13.48;8.50;;;;;;;;;;5028735;28;20032;-51
2024/02/29 06:04:05;;;;;;;13.63;8.85;;;;;;;;;;5029709;28;20022;-50
2024/02/29 06:06:31;;;;;;;14.40;9.98;;;;;;;;;;5030179;28;20032;-52
2024/02/29 06:08:57;;;;;;;13.70;9.00;;;;;;;;;;5029856;28;20125;-49
2024/02/29 06:11:23;;;;;;;13.50;8.30;;;;;;;;;;5022394;28;20142;-54
2024/02/29 06:13:49;;;;;;;13.60;8.57;;;;;;;;;;5009871;28;20407;-53
2024/02/29 06:16:15;;;;;;;13.55;8.40;;;;;;;;;;5044083;22;20146;-57
2024/02/29 06:18:45;;;;;;;13.48;8.27;;;;;;;;;;5026783;28;20101;-56
2024/02/29 06:21:11;;;;;;;13.38;8.25;;;;;;;;;;5046000;28;20025;-57
2024/02/29 06:23:37;;;;;;;13.55;8.60;;;;;;;;;;5047729;28;20025;-54
2024/02/29 06:26:03;;;;;;;13.73;9.02;;;;;;;;;;5048415;28;20028;-55
2024/02/29 06:28:29;;;;;;;13.43;8.20;;;;;;;;;;5040169;28;20108;-55
2024/02/29 06:30:55;;;;;;;13.32;8.07;;;;;;;;;;5027726;28;20030;-53
2024/02/29 06:33:21;;;;;;;13.45;8.25;;;;;;;;;;5029613;28;20360;-53
2024/02/29 06:35:47;;;;;;;13.48;8.20;;;;;;;;;;5032212;28;20530;-56
2024/02/29 06:38:14;;;;;;;13.40;8.07;;;;;;;;;;5032169;28;20026;-57
2024/02/29 06:40:40;;;;;;;13.32;7.90;;;;;;;;;;5032031;28;20032;-54
2024/02/29 06:43:06;;;;;;;13.25;8.05;;;;;;;;;;5030277;28;20120;-55
2024/02/29 06:45:32;;;;;;;13.27;8.00;;;;;;;;;;5040137;28;20021;-56
2024/02/29 06:47:58;;;;;;;13.38;8.32;;;;;;;;;;5052330;28;20025;-55
2024/02/29 06:50:24;;;;;;;13.48;8.43;;;;;;;;;;5051969;28;20513;-56
2024/02/29 06:52:50;;;;;;;13.25;7.90;;;;;;;;;;5051759;28;20025;-58
2024/02/29 06:55:16;;;;;;;13.45;8.30;;;;;;;;;;5052487;28;20032;-54
2024/02/29 06:57:44;;;;;;;13.63;8.68;;;;;;;;;;5052956;28;20567;-55
2024/02/29 07:00:11;;;;;;;13.35;8.30;;;;;;;;;;5052456;28;20032;-56
2024/02/29 07:02:37;;;;;;;13.40;8.20;;;;;;;;;;5051313;28;20037;-56
2024/02/29 07:05:03;;;;;;;13.48;8.50;;;;;;;;;;5052137;28;20021;-59
2024/02/29 07:07:29;;;;;;;13.55;8.57;;;;;;;;;;5052291;28;20025;-56
2024/02/29 07:09:56;;;;;;;13.50;8.30;;;;;;;;;;5051651;28;20048;-54
2024/02/29 07:12:22;;;;;;;13.30;8.13;;;;;;;;;;5039952;28;20026;-55
2024/02/29 07:14:48;;;;;;;13.32;8.10;;;;;;;;;;5031858;28;20084;-57
2024/02/29 07:17:14;;;;;;;13.48;8.32;;;;;;;;;;5031981;28;20025;-53
2024/02/29 07:19:40;;;;;;;13.60;8.73;;;;;;;;;;5032035;28;20021;-55
2024/02/29 07:22:07;;;;;;;14.40;10.45;;;;;;;;;;5031460;28;20028;-54
2024/02/29 07:24:33;;;;;;;13.43;8.30;;;;;;;;;;5031501;28;20030;-57
2024/02/29 07:26:59;;;;;;;13.50;8.38;;;;;;;;;;5032285;28;20033;-56
2024/02/29 07:29:26;;;;;;;13.50;8.55;;;;;;;;;;5032035;28;20045;-56
2024/02/29 07:31:51;;;;;;;13.65;8.77;;;;;;;;;;5031563;28;20026;-57
2024/02/29 07:34:17;;;;;;;13.43;8.30;;;;;;;;;;5031651;28;20056;-55
2024/02/29 07:36:44;;;;;;;13.60;8.70;;;;;;;;;;5031723;28;20064;-57
2024/02/29 07:39:13;;;;;;;13.63;8.70;;;;;;;;;;5031579;28;20021;-56
2024/02/29 07:41:39;;;;;;;16.52;9.85;;;;;;;;;;5031238;28;20407;-55
2024/02/29 07:44:05;;;;;;;13.60;8.68;;;;;;;;;;5031207;28;20021;-57
2024/02/29 07:46:32;;;;;;;13.55;8.60;;;;;;;;;;5042879;28;20617;-53
2024/02/29 07:48:59;;;;;;;13.57;8.60;;;;;;;;;;5051755;28;20029;-55
2024/02/29 07:51:25;;;;;;;13.50;8.50;;;;;;;;;;5050824;28;20053;-58
2024/02/29 07:53:51;;;;;;;13.43;8.32;;;;;;;;;;5050849;28;20025;-51
2024/02/29 07:56:17;;;;;;;32.33;16.88;;;;;;;;;;5051792;28;20470;-55
2024/02/29 07:58:43;;;;;;;13.60;8.50;;;;;;;;;;5052285;28;20023;-54
2024/02/29 08:01:09;;;;;;;13.35;8.23;;;;;;;;;;5049481;28;20024;-54
2024/02/29 08:03:36;;;;;;;13.45;8.30;;;;;;;;;;5050537;28;20021;-55
2024/02/29 08:06:02;;;;;;;13.60;8.55;;;;;;;;;;5051279;28;20061;-57
2024/02/29 08:08:29;;;;;;;13.38;8.25;;;;;;;;;;5051248;28;20060;-57
2024/02/29 08:10:54;;;;;;;13.50;8.35;;;;;;;;;;5051031;28;20059;-56
2024/02/29 08:13:20;;;;;;;13.38;8.20;;;;;;;;;;5040296;28;20108;-54
2024/02/29 08:15:46;;;;;;;16.40;10.25;;;;;;;;;;5030691;28;20029;-58
2024/02/29 08:18:13;;;;;;;13.18;7.85;;;;;;;;;;5030759;28;20503;-56
2024/02/29 08:20:39;;;;;;;13.30;7.93;;;;;;;;;;5030705;28;20048;-56
2024/02/29 08:23:05;;;;;;;13.35;8.23;;;;;;;;;;5028794;28;20025;-57
2024/02/29 08:25:31;;;;;;;13.60;8.70;;;;;;;;;;5030672;28;20025;-56
2024/02/29 08:27:58;;;;;;;13.52;8.40;;;;;;;;;;5030618;28;20021;-57
2024/02/29 08:30:24;;;;;;;13.57;8.60;;;;;;;;;;5030407;28;20045;-55
2024/02/29 08:32:50;;;;;;;13.55;8.40;;;;;;;;;;5029682;28;20036;-58
2024/02/29 08:35:16;;;;;;;14.20;8.32;;;;;;;;;;5030172;28;20095;-55
2024/02/29 08:37:43;;;;;;;13.60;8.70;;;;;;;;;;5030266;28;20033;-56
2024/02/29 08:40:10;;;;;;;13.50;8.50;;;;;;;;;;5030490;28;20495;-55
2024/02/29 08:42:36;;;;;;;13.55;8.50;;;;;;;;;;5028713;28;20030;-55
2024/02/29 08:45:03;;;;;;;13.50;8.40;;;;;;;;;;5030249;28;20029;-56
2024/02/29 08:47:29;;;;;;;13.57;8.52;;;;;;;;;;5030308;28;20024;-55
2024/02/29 08:49:55;;;;;;;13.60;8.70;;;;;;;;;;5030220;28;20044;-53
2024/02/29 08:52:21;;;;;;;13.90;8.73;;;;;;;;;;5028372;28;20025;-57
2024/02/29 08:54:47;;;;;;;13.45;8.40;;;;;;;;;;5029661;28;20025;-56
2024/02/29 08:57:13;;;;;;;13.60;8.73;;;;;;;;;;5029921;28;20030;-55
2024/02/29 08:59:39;;;;;;;13.60;8.70;;;;;;;;;;5029935;28;20030;-57
2024/02/29 09:02:05;;;;;;;13.55;8.50;;;;;;;;;;5029102;28;20479;-55
2024/02/29 09:04:31;;;;;;;13.57;8.70;;;;;;;;;;5030222;28;20025;-53
2024/02/29 09:06:57;;;;;;;13.65;8.70;;;;;;;;;;5029969;28;20038;-59
2024/02/29 09:09:23;;;;;;;13.60;8.73;;;;;;;;;;5028454;28;20029;-54
2024/02/29 09:11:50;;;;;;;13.73;9.05;;;;;;;;;;5029724;28;20033;-56
2024/02/29 09:14:16;;;;;;;14.02;9.45;;;;;;;;;;5028276;28;20488;-56
2024/02/29 09:16:43;;;;;;;14.00;9.15;;;;;;;;;;5029061;28;20034;-54
2024/02/29 09:19:09;;;;;;;13.63;8.65;;;;;;;;;;5030149;28;20483;-56
2024/02/29 09:21:35;;;;;;;16.23;12.00;;;;;;;;;;5029352;28;20048;-55
2024/02/29 09:24:01;;;;;;;13.73;9.10;;;;;;;;;;5029374;28;20017;-54
2024/02/29 09:26:27;;;;;;;13.70;8.82;;;;;;;;;;5028360;28;20496;-58
2024/02/29 09:28:54;;;;;;;13.68;8.98;;;;;;;;;;5029752;28;20025;-55
2024/02/29 09:31:20;;;;;;;13.70;9.10;;;;;;;;;;5030095;28;20091;-54
2024/02/29 09:33:46;;;;;;;13.73;8.98;;;;;;;;;;5029349;28;20052;-57
2024/02/29 09:36:17;;;;;;;13.70;8.90;;;;;;;;;;5029169;28;20025;-57
2024/02/29 09:38:43;;;;;;;13.80;9.20;;;;;;;;;;5029710;28;20503;-52
2024/02/29 09:41:10;;;;;;;13.75;9.15;;;;;;;;;;5048014;28;20109;-54
2024/02/29 09:43:36;;;;;;;13.63;8.70;;;;;;;;;;5048450;28;20021;-55
2024/02/29 09:46:02;;;;;;;14.10;9.50;;;;;;;;;;5049256;28;20514;-56
2024/02/29 09:48:29;;;;;;;14.90;9.73;;;;;;;;;;5049240;28;20104;-57
2024/02/29 09:50:59;;;;;;;13.63;8.95;;;;;;;;;;5049025;28;20029;-56
2024/02/29 09:53:25;;;;;;;13.68;8.80;;;;;;;;;;5046782;28;20390;-55
2024/02/29 09:55:52;;;;;;;14.18;9.57;;;;;;;;;;5047712;28;20025;-56
2024/02/29 09:58:20;;;;;;;13.60;8.80;;;;;;;;;;5028427;28;20029;-56
2024/02/29 10:00:46;;;;;;;;;;;;;;;;;;5037476;28;20284;-57
2024/02/29 10:03:13;;;;;;;13.65;8.95;;;;;;;;;;5025989;28;19941;-58
2024/02/29 10:05:39;;;;;;;13.68;8.90;;;;;;;;;;5028775;28;20038;-58
2024/02/29 10:08:05;;;;;;;13.75;9.05;;;;;;;;;;5034193;28;20059;-55
2024/02/29 10:10:32;;;;;;;13.75;9.05;;;;;;;;;;5048749;28;20025;-55
2024/02/29 10:12:58;;;;;;;13.60;8.85;;;;;;;;;;5042921;28;20049;-54
2024/02/29 10:15:25;;;;;;;13.70;8.98;;;;;;;;;;5028914;28;20454;-56
2024/02/29 10:17:51;;;;;;;13.63;8.98;;;;;;;;;;5029124;28;20531;-58
2024/02/29 10:20:20;;;;;;;13.85;9.38;;;;;;;;;;5028693;28;20140;-55
2024/02/29 10:22:46;;;;;;;13.93;9.55;;;;;;;;;;5028307;28;20018;-54
2024/02/29 10:25:13;;;;;;;14.30;9.90;;;;;;;;;;5028892;28;20432;-54
2024/02/29 10:27:39;;;;;;;13.98;9.82;;;;;;;;;;5028457;28;20026;-57
2024/02/29 10:30:10;;;;;;;14.00;9.80;;;;;;;;;;5028708;28;20480;-56
2024/02/29 10:32:36;;;;;;;13.95;9.68;;;;;;;;;;5028014;28;20164;-54
2024/02/29 10:35:21;;;;;;;13.95;9.70;;;;;;;;;;5028806;28;20034;-57
2024/02/29 10:37:48;;;;;;;14.05;9.90;;;;;;;;;;5029136;28;20033;-53
2024/02/29 10:40:14;;;;;;;13.80;9.35;;;;;;;;;;5029078;28;20395;-58
2024/02/29 10:42:41;;;;;;;13.98;9.70;;;;;;;;;;5028031;28;20100;-53
2024/02/29 10:45:14;;;;;;;13.90;9.52;;;;;;;;;;5028897;28;20560;-54
2024/02/29 10:47:53;;;;;;;13.80;9.27;;;;;;;;;;5028798;28;20042;-54
2024/02/29 10:50:24;;;;;;;13.90;9.43;;;;;;;;;;5028571;28;20029;-54
2024/02/29 10:52:52;;;;;;;13.98;9.73;;;;;;;;;;5027999;28;20029;-57
2024/02/29 10:55:20;;;;;;;14.00;9.85;;;;;;;;;;5028558;28;20045;-55
2024/02/29 10:57:57;;;;;;;13.98;9.88;;;;;;;;;;5028788;28;20021;-53
2024/02/29 11:00:23;;;;;;;14.02;9.98;;;;;;;;;;5028804;28;20036;-52
2024/02/29 11:02:49;;;;;;;13.98;9.75;;;;;;;;;;5027775;28;20025;-55
2024/02/29 11:05:16;;;;;;;14.07;10.07;;;;;;;;;;5028014;28;20029;-55
2024/02/29 11:07:42;;;;;;;13.98;9.88;;;;;;;;;;5028170;28;20025;-52
2024/02/29 11:10:09;;;;;;;14.10;10.00;;;;;;;;;;5028359;28;20029;-55
2024/02/29 11:12:40;;;;;;;14.15;10.20;;;;;;;;;;5027839;28;20612;-53
2024/02/29 11:15:09;;;;;;;14.10;9.95;;;;;;;;;;5028429;28;20091;-52
2024/02/29 11:17:36;;;;;;;26.15;19.63;;;;;;;;;;5028309;28;20091;-57
2024/02/29 11:20:09;;;;;;;14.18;10.20;;;;;;;;;;5031168;28;20017;-51
2024/02/29 11:22:39;;;;;;;14.15;10.13;;;;;;;;;;5031193;28;20492;-56
2024/02/29 11:25:09;;;;;;;14.13;10.15;;;;;;;;;;5031717;28;20021;-55
2024/02/29 11:27:35;;;;;;;14.10;10.07;;;;;;;;;;5031986;28;20029;-56
2024/02/29 11:30:03;;;;;;;14.05;10.10;;;;;;;;;;5031796;28;20104;-54
2024/02/29 11:32:31;;;;;;;13.98;9.90;;;;;;;;;;5030909;28;20711;-54
2024/02/29 11:34:58;;;;;;;14.05;10.00;;;;;;;;;;5030670;28;20438;-59
2024/02/29 11:37:25;;;;;;;13.95;9.80;;;;;;;;;;5031852;28;20025;-57
2024/02/29 11:39:51;;;;;;;14.00;9.88;;;;;;;;;;5031860;28;20108;-51
2024/02/29 11:42:17;;;;;;;13.95;9.82;;;;;;;;;;5031121;28;20033;-54
2024/02/29 11:44:47;;;;;;;14.20;10.40;;;;;;;;;;5031759;28;20068;-55
2024/02/29 11:47:13;;;;;;;14.00;9.80;;;;;;;;;;5030333;28;20490;-56
2024/02/29 11:49:39;;;;;;;13.90;9.52;;;;;;;;;;5030462;28;20049;-54
2024/02/29 11:52:05;;;;;;;14.20;10.40;;;;;;;;;;5030957;28;20439;-58
2024/02/29 11:54:31;;;;;;;14.02;10.00;;;;;;;;;;5032413;28;20480;-58
2024/02/29 11:56:57;;;;;;;13.98;9.70;;;;;;;;;;5030675;28;20108;-52
2024/02/29 11:59:26;;;;;;;14.10;10.10;;;;;;;;;;5031754;28;20068;-56
2024/02/29 12:01:53;;;;;;;13.85;9.50;;;;;;;;;;5030869;28;20029;-54
2024/02/29 12:04:19;;;;;;;13.95;9.68;;;;;;;;;;5030939;28;20525;-61
2024/02/29 12:06:46;;;;;;;14.00;9.90;;;;;;;;;;5031230;28;20108;-58
2024/02/29 12:09:13;;;;;;;13.93;9.77;;;;;;;;;;5031314;28;20025;-55
2024/02/29 12:11:40;;;;;;;13.93;9.80;;;;;;;;;;5031348;28;20306;-55
2024/02/29 12:14:09;;;;;;;14.00;9.90;;;;;;;;;;5030452;28;20037;-54
2024/02/29 12:16:36;;;;;;;14.40;10.30;;;;;;;;;;5045295;22;20052;-60
2024/02/29 12:19:02;;;;;;;13.90;9.60;;;;;;;;;;5031134;28;20041;-65
2024/02/29 12:21:28;;;;;;;13.95;9.80;;;;;;;;;;5031217;28;20029;-67
2024/02/29 12:23:56;;;;;;;13.95;9.55;;;;;;;;;;5030966;28;20070;-66
2024/02/29 12:26:22;;;;;;;13.90;9.43;;;;;;;;;;5031158;28;20034;-62
2024/02/29 12:28:48;;;;;;;13.93;9.50;;;;;;;;;;5029792;28;20125;-61
2024/02/29 12:31:15;;;;;;;14.60;10.10;;;;;;;;;;5029962;28;20033;-58
2024/02/29 12:33:44;;;;;;;14.10;10.20;;;;;;;;;;5030265;28;20069;-59
2024/02/29 12:36:16;;;;;;;14.00;9.90;;;;;;;;;;5030691;28;20033;-57
2024/02/29 12:38:42;;;;;;;13.88;9.50;;;;;;;;;;5030665;28;20022;-56
2024/02/29 12:41:08;;;;;;;13.98;9.85;;;;;;;;;;5030665;28;20025;-54
2024/02/29 12:43:38;;;;;;;13.90;9.70;;;;;;;;;;5030552;28;20030;-53
2024/02/29 12:46:05;;;;;;;13.98;9.80;;;;;;;;;;5030478;28;20092;-54
2024/02/29 12:48:31;;;;;;;13.90;9.50;;;;;;;;;;5030969;28;20071;-54
2024/02/29 12:50:57;;;;;;;13.95;9.68;;;;;;;;;;5030343;28;20035;-53
2024/02/29 12:53:23;;;;;;;13.93;9.82;;;;;;;;;;5029193;28;20126;-50
2024/02/29 12:55:50;;;;;;;14.00;9.70;;;;;;;;;;5031174;28;20120;-62
2024/02/29 12:58:16;;;;;;;13.93;9.75;;;;;;;;;;5030980;28;20623;-52
2024/02/29 13:00:42;;;;;;;14.05;9.98;;;;;;;;;;5030558;28;20187;-52
2024/02/29 13:03:08;;;;;;;13.98;9.63;;;;;;;;;;5028878;28;20059;-50
2024/02/29 13:05:34;;;;;;;14.20;10.40;;;;;;;;;;5029416;28;20235;-50
2024/02/29 13:08:02;;;;;;;14.05;9.95;;;;;;;;;;5030785;28;20040;-54
2024/02/29 13:10:29;;;;;;;14.02;9.90;;;;;;;;;;5030844;28;20395;-53
2024/02/29 13:12:55;;;;;;;13.95;9.70;;;;;;;;;;5029406;28;20017;-53
2024/02/29 13:15:21;;;;;;;14.00;9.85;;;;;;;;;;5031012;28;20056;-60
2024/02/29 13:17:47;;;;;;;13.95;9.70;;;;;;;;;;5030780;28;20495;-57
2024/02/29 13:20:13;;;;;;;14.00;9.60;;;;;;;;;;5030428;28;20067;-54
2024/02/29 13:22:42;;;;;;;14.00;9.98;;;;;;;;;;5029487;28;20075;-56
2024/02/29 13:25:08;;;;;;;14.18;10.27;;;;;;;;;;5030134;28;20118;-55
2024/02/29 13:27:34;;;;;;;14.00;9.90;;;;;;;;;;5028987;28;20037;-53
2024/02/29 13:30:00;;;;;;;13.98;9.80;;;;;;;;;;5028906;28;20052;-53
2024/02/29 13:32:27;;;;;;;13.98;9.82;;;;;;;;;;5029588;28;20102;-63
2024/02/29 13:34:53;;;;;;;13.98;9.80;;;;;;;;;;5027794;28;20064;-56
2024/02/29 13:37:20;;;;;;;13.98;9.77;;;;;;;;;;5029552;28;20143;-52
2024/02/29 13:39:46;;;;;;;14.00;9.82;;;;;;;;;;5029453;28;20399;-55
2024/02/29 13:42:12;;;;;;;14.00;9.80;;;;;;;;;;5027252;28;20118;-55
2024/02/29 13:44:38;;;;;;;14.00;9.88;;;;;;;;;;5029756;28;20512;-54
2024/02/29 13:47:07;;;;;;;14.00;9.95;;;;;;;;;;5028269;28;20049;-53
2024/02/29 13:49:33;;;;;;;13.90;9.60;;;;;;;;;;5029843;28;20590;-51
2024/02/29 13:51:59;;;;;;;13.98;9.77;;;;;;;;;;5028637;28;20499;-52
2024/02/29 13:54:25;;;;;;;14.10;10.10;;;;;;;;;;5029422;28;20025;-57
2024/02/29 13:56:53;;;;;;;14.13;9.90;;;;;;;;;;5029395;28;20024;-50
2024/02/29 13:59:19;;;;;;;14.05;10.00;;;;;;;;;;5028237;28;20565;-54
2024/02/29 14:01:45;;;;;;;13.90;9.50;;;;;;;;;;5029442;28;20028;-52
2024/02/29 14:04:11;;;;;;;13.90;9.52;;;;;;;;;;5029101;28;20025;-51
2024/02/29 14:06:37;;;;;;;13.90;9.57;;;;;;;;;;5029368;28;20029;-50
2024/02/29 14:09:04;;;;;;;14.10;10.00;;;;;;;;;;5029217;28;20475;-55
2024/02/29 14:11:30;;;;;;;13.98;9.73;;;;;;;;;;5029074;28;20175;-53
2024/02/29 14:13:57;;;;;;;14.00;9.88;;;;;;;;;;5028880;28;20057;-53
2024/02/29 14:16:23;;;;;;;14.00;9.90;;;;;;;;;;5029203;28;20025;-52
2024/02/29 14:18:49;;;;;;;21.38;11.23;;;;;;;;;;5028251;28;20464;-55
2024/02/29 14:21:15;;;;;;;14.20;10.30;;;;;;;;;;5029988;28;20476;-54
2024/02/29 14:23:41;;;;;;;14.00;9.93;;;;;;;;;;5027596;28;20029;-51